createdAt,value
2019-05-01T00:24:41.870Z,9.08
2019-05-01T00:27:31.047Z,8.88
2019-05-01T00:30:29.695Z,8.73
2019-05-01T00:33:14.208Z,10.35
2019-05-01T00:36:04.828Z,8.95
2019-05-01T00:38:54.248Z,9.40
2019-05-01T00:41:44.706Z,9.05
2019-05-01T00:44:34.128Z,10.00
2019-05-01T00:47:23.444Z,9.78
2019-05-01T00:50:12.585Z,9.28
2019-05-01T00:53:02.532Z,9.18
2019-05-01T00:55:59.763Z,9.00
2019-05-01T00:59:01.627Z,9.50
2019-05-01T01:02:22.128Z,10.03
2019-05-01T01:05:11.533Z,9.40
2019-05-01T01:08:01.244Z,9.55
2019-05-01T01:10:51.082Z,9.28
2019-05-01T01:13:40.234Z,9.75
2019-05-01T01:16:29.527Z,9.08
2019-05-01T01:19:19.159Z,8.85
2019-05-01T01:22:08.926Z,9.15
2019-05-01T01:24:57.964Z,10.25
2019-05-01T01:27:46.833Z,9.63
2019-05-01T01:30:35.934Z,10.20
2019-05-01T01:33:25.854Z,8.93
2019-05-01T01:36:14.755Z,9.50
2019-05-01T01:39:05.710Z,8.98
2019-05-01T01:41:55.476Z,8.95
2019-05-01T01:45:11.074Z,9.20
2019-05-01T01:48:10.509Z,9.53
2019-05-01T01:50:59.521Z,9.38
2019-05-01T01:53:48.923Z,9.70
2019-05-01T01:56:38.589Z,9.48
2019-05-01T01:59:28.248Z,9.03
2019-05-01T02:02:25.733Z,9.78
2019-05-01T02:05:21.101Z,9.58
2019-05-01T02:08:10.364Z,8.97
2019-05-01T02:10:59.537Z,9.35
2019-05-01T02:13:49.136Z,9.08
2019-05-01T02:16:38.125Z,8.88
2019-05-01T02:19:27.844Z,8.70
2019-05-01T02:22:17.335Z,9.45
2019-05-01T02:25:09.108Z,8.80
2019-05-01T02:28:32.969Z,9.43
2019-05-01T02:31:30.030Z,9.55
2019-05-01T02:34:20.019Z,8.03
2019-05-01T02:37:08.683Z,7.70
2019-05-01T02:39:58.541Z,7.72
2019-05-01T02:42:47.593Z,7.33
2019-05-01T02:45:37.148Z,7.10
2019-05-01T02:48:26.095Z,7.70
2019-05-01T02:51:15.475Z,7.80
2019-05-01T02:54:04.818Z,6.97
2019-05-01T02:56:59.496Z,7.12
2019-05-01T02:59:51.638Z,7.20
2019-05-01T03:02:41.194Z,7.05
2019-05-01T03:05:31.058Z,6.75
2019-05-01T03:08:20.243Z,7.00
2019-05-01T03:11:09.762Z,6.67
2019-05-01T03:13:58.994Z,7.17
2019-05-01T03:16:48.979Z,6.25
2019-05-01T03:19:58.030Z,6.70
2019-05-01T03:23:06.094Z,6.42
2019-05-01T03:25:55.940Z,6.47
2019-05-01T03:28:45.512Z,6.42
2019-05-01T03:31:34.197Z,6.10
2019-05-01T03:34:23.515Z,5.83
2019-05-01T03:37:13.135Z,6.20
2019-05-01T03:40:02.672Z,5.95
2019-05-01T03:42:51.365Z,6.20
2019-05-01T03:45:41.302Z,6.87
2019-05-01T03:48:31.202Z,6.37
2019-05-01T03:51:21.618Z,6.45
2019-05-01T03:54:11.027Z,6.78
2019-05-01T03:56:59.779Z,7.17
2019-05-01T03:59:49.058Z,6.20
2019-05-01T04:02:47.429Z,6.95
2019-05-01T04:05:37.123Z,7.20
2019-05-01T04:08:26.689Z,6.67
2019-05-01T04:11:15.895Z,6.35
2019-05-01T04:14:05.900Z,6.20
2019-05-01T04:17:02.719Z,6.45
2019-05-01T04:22:42.820Z,5.72
2019-05-01T04:25:32.823Z,6.30
2019-05-01T04:28:45.055Z,6.17
2019-05-01T04:31:43.152Z,6.28
2019-05-01T04:34:39.456Z,6.40
2019-05-01T04:37:28.958Z,6.08
2019-05-01T04:40:19.100Z,6.45
2019-05-01T04:43:08.743Z,6.35
2019-05-01T04:45:57.867Z,5.67
2019-05-01T04:48:47.081Z,5.53
2019-05-01T04:51:35.998Z,5.67
2019-05-01T04:54:27.048Z,5.40
2019-05-01T04:57:16.959Z,5.78
2019-05-01T05:00:08.730Z,5.90
2019-05-01T05:03:10.146Z,5.65
2019-05-01T05:05:59.823Z,5.97
2019-05-01T05:08:48.701Z,5.55
2019-05-01T05:11:49.163Z,6.20
2019-05-01T05:14:41.009Z,5.78
2019-05-01T05:17:30.633Z,5.70
2019-05-01T05:20:19.773Z,6.12
2019-05-01T05:23:09.459Z,6.10
2019-05-01T05:25:59.123Z,6.55
2019-05-01T05:28:49.370Z,5.60
2019-05-01T05:31:38.794Z,6.03
2019-05-01T05:34:28.868Z,5.80
2019-05-01T05:37:24.029Z,6.28
2019-05-01T05:40:13.862Z,6.08
2019-05-01T05:43:03.354Z,6.53
2019-05-01T05:45:52.217Z,5.80
2019-05-01T05:48:41.076Z,6.12
2019-05-01T05:51:41.065Z,8.43
2019-05-01T05:55:01.035Z,7.75
2019-05-01T05:58:15.176Z,8.43
2019-05-01T06:01:25.632Z,7.58
2019-05-01T06:04:29.368Z,8.90
2019-05-01T06:07:49.722Z,7.15
2019-05-01T06:10:46.909Z,8.10
2019-05-01T06:13:57.075Z,8.60
2019-05-01T06:17:03.810Z,8.70
2019-05-01T06:19:57.645Z,8.40
2019-05-01T06:23:05.360Z,8.38
2019-05-01T06:25:59.987Z,9.93
2019-05-01T06:28:49.830Z,9.05
2019-05-01T06:31:39.262Z,10.10
2019-05-01T06:34:28.695Z,9.28
2019-05-01T06:37:20.832Z,8.73
2019-05-01T06:40:11.835Z,8.70
2019-05-01T06:43:01.626Z,9.58
2019-05-01T06:45:59.967Z,10.18
2019-05-01T06:48:54.733Z,10.48
2019-05-01T06:51:48.055Z,9.75
2019-05-01T06:54:37.757Z,9.30
2019-05-01T06:57:27.337Z,8.98
2019-05-01T07:00:17.803Z,9.35
2019-05-01T07:03:10.443Z,9.18
2019-05-01T07:05:58.306Z,9.18
2019-05-01T07:08:50.301Z,8.88
2019-05-01T07:11:42.322Z,8.68
2019-05-01T07:14:31.294Z,9.40
2019-05-01T07:17:20.693Z,10.23
2019-05-01T07:20:22.259Z,10.10
2019-05-01T07:23:12.718Z,10.32
2019-05-01T07:26:02.410Z,11.18
2019-05-01T07:28:55.809Z,10.23
2019-05-01T07:31:44.845Z,10.85
2019-05-01T07:34:34.812Z,10.88
2019-05-01T07:37:25.864Z,9.80
2019-05-01T07:40:14.059Z,10.28
2019-05-01T07:43:11.840Z,10.23
2019-05-01T07:46:07.199Z,11.12
2019-05-01T07:48:56.733Z,11.03
2019-05-01T07:51:53.700Z,12.07
2019-05-01T07:54:43.540Z,11.85
2019-05-01T07:57:34.143Z,12.15
2019-05-01T08:00:41.561Z,13.13
2019-05-01T08:03:28.959Z,11.60
2019-05-01T08:06:21.490Z,12.07
2019-05-01T08:09:11.355Z,12.00
2019-05-01T08:12:01.171Z,12.00
2019-05-01T08:14:52.371Z,11.40
2019-05-01T08:17:43.770Z,12.85
2019-05-01T08:20:38.975Z,13.15
2019-05-01T08:23:28.344Z,13.68
2019-05-01T08:26:17.546Z,14.28
2019-05-01T08:29:36.991Z,14.70
2019-05-01T08:32:44.186Z,15.88
2019-05-01T08:35:36.393Z,15.68
2019-05-01T08:38:25.614Z,15.55
2019-05-01T08:41:16.903Z,15.70
2019-05-01T08:44:07.708Z,16.80
2019-05-01T08:47:10.391Z,15.63
2019-05-01T08:50:10.565Z,15.90
2019-05-01T08:53:05.414Z,16.57
2019-05-01T08:55:56.868Z,16.55
2019-05-01T08:58:49.396Z,16.10
2019-05-01T09:01:40.663Z,17.35
2019-05-01T09:04:32.375Z,16.70
2019-05-01T09:07:24.073Z,16.73
2019-05-01T09:10:17.049Z,16.70
2019-05-01T09:13:04.238Z,17.23
2019-05-01T09:15:53.538Z,17.95
2019-05-01T09:18:42.544Z,17.67
2019-05-01T09:21:33.330Z,16.93
2019-05-01T09:24:23.318Z,18.25
2019-05-01T09:27:23.788Z,18.05
2019-05-01T09:30:21.826Z,17.92
2019-05-01T09:33:09.454Z,17.77
2019-05-01T09:35:58.822Z,18.60
2019-05-01T09:38:50.085Z,16.70
2019-05-01T09:41:43.223Z,17.40
2019-05-01T09:44:31.303Z,18.27
2019-05-01T09:47:21.617Z,16.32
2019-05-01T09:50:10.680Z,17.27
2019-05-01T09:53:10.217Z,17.02
2019-05-01T09:56:09.149Z,15.63
2019-05-01T09:58:58.455Z,17.52
2019-05-01T10:01:47.193Z,16.40
2019-05-01T10:04:36.338Z,16.20
2019-05-01T10:07:29.017Z,15.58
2019-05-01T10:10:17.139Z,15.58
2019-05-01T10:13:06.836Z,15.65
2019-05-01T10:15:56.332Z,16.25
2019-05-01T10:18:45.659Z,15.23
2019-05-01T10:21:37.561Z,14.90
2019-05-01T10:24:27.064Z,15.98
2019-05-01T10:27:18.843Z,14.73
2019-05-01T10:30:39.669Z,14.38
2019-05-01T10:33:32.706Z,13.55
2019-05-01T10:36:38.940Z,13.83
2019-05-01T10:39:30.186Z,13.40
2019-05-01T10:42:19.789Z,12.93
2019-05-01T10:45:08.883Z,12.63
2019-05-01T10:47:58.550Z,12.47
2019-05-01T10:50:48.186Z,12.98
2019-05-01T10:53:37.468Z,12.10
2019-05-01T10:56:27.097Z,11.85
2019-05-01T10:59:16.798Z,11.83
2019-05-01T11:02:08.135Z,10.85
2019-05-01T11:04:58.530Z,10.98
2019-05-01T11:07:47.850Z,11.43
2019-05-01T11:10:37.439Z,10.00
2019-05-01T11:13:26.616Z,10.35
2019-05-01T11:16:16.757Z,9.83
2019-05-01T11:19:06.229Z,8.83
2019-05-01T11:21:56.075Z,8.55
2019-05-01T11:24:45.105Z,9.00
2019-05-01T11:27:34.390Z,8.15
2019-05-01T11:30:24.040Z,8.80
2019-05-01T11:33:20.052Z,8.40
2019-05-01T11:36:18.313Z,8.20
2019-05-01T11:39:35.965Z,8.80
2019-05-01T11:42:24.793Z,8.08
2019-05-01T11:45:14.060Z,8.13
2019-05-01T11:48:03.095Z,7.78
2019-05-01T11:50:52.708Z,7.05
2019-05-01T11:53:42.301Z,8.18
2019-05-01T11:56:32.496Z,8.08
2019-05-01T11:59:21.280Z,8.23
2019-05-01T12:02:10.845Z,8.88
2019-05-01T12:05:00.168Z,7.95
2019-05-01T12:07:50.195Z,8.48
2019-05-01T12:10:39.814Z,7.75
2019-05-01T12:13:43.057Z,7.62
2019-05-01T12:16:26.403Z,8.65
2019-05-01T12:19:16.832Z,7.70
2019-05-01T12:22:06.226Z,7.33
2019-05-01T12:24:55.804Z,7.78
2019-05-01T12:27:45.709Z,8.05
2019-05-01T12:30:34.916Z,8.45
2019-05-01T12:33:24.091Z,7.72
2019-05-01T12:36:13.682Z,7.95
2019-05-01T12:39:03.555Z,8.48
2019-05-01T12:41:59.608Z,7.55
2019-05-01T12:44:49.044Z,7.83
2019-05-01T12:47:45.793Z,7.15
2019-05-01T12:50:35.070Z,7.90
2019-05-01T12:53:40.252Z,7.75
2019-05-01T12:56:39.839Z,7.30
2019-05-01T12:59:29.229Z,6.78
2019-05-01T13:02:18.714Z,6.87
2019-05-01T13:05:08.603Z,7.10
2019-05-01T13:07:57.336Z,6.95
2019-05-01T13:10:46.581Z,7.42
2019-05-01T13:13:35.948Z,6.60
2019-05-01T13:16:24.956Z,6.87
2019-05-01T13:19:15.115Z,5.87
2019-05-01T13:22:08.319Z,6.08
2019-05-01T13:25:00.179Z,5.70
2019-05-01T13:27:59.119Z,6.62
2019-05-01T13:30:57.014Z,5.78
2019-05-01T13:33:46.525Z,6.20
2019-05-01T13:36:36.433Z,6.92
2019-05-01T13:39:25.906Z,5.30
2019-05-01T13:42:16.599Z,5.62
2019-05-01T13:45:06.887Z,6.30
2019-05-01T13:47:58.711Z,6.10
2019-05-01T13:50:48.954Z,6.00
2019-05-01T13:53:39.156Z,6.12
2019-05-01T13:56:29.391Z,6.30
2019-05-01T13:59:19.498Z,6.37
2019-05-01T14:02:08.587Z,6.45
2019-05-01T14:04:58.845Z,6.47
2019-05-01T14:07:48.711Z,6.25
2019-05-01T14:10:40.974Z,5.20
2019-05-01T14:13:30.758Z,4.87
2019-05-01T14:16:19.826Z,4.65
2019-05-01T14:19:12.764Z,3.92
2019-05-01T14:22:19.973Z,3.75
2019-05-01T14:25:13.254Z,4.35
2019-05-01T14:28:02.960Z,3.80
2019-05-01T14:30:52.524Z,4.30
2019-05-01T14:33:42.090Z,3.95
2019-05-01T14:36:31.205Z,4.12
2019-05-01T14:39:20.252Z,3.67
2019-05-01T14:42:10.461Z,3.40
2019-05-01T14:44:59.899Z,4.65
2019-05-01T14:47:49.593Z,3.60
2019-05-01T14:50:38.940Z,3.85
2019-05-01T14:53:28.507Z,3.75
2019-05-01T14:56:18.084Z,3.83
2019-05-01T14:59:07.487Z,3.20
2019-05-01T15:01:56.834Z,3.60
2019-05-01T15:04:46.068Z,3.35
2019-05-01T15:07:43.265Z,3.50
2019-05-01T15:10:26.865Z,3.02
2019-05-01T15:13:34.000Z,3.30
2019-05-01T15:16:45.813Z,3.30
2019-05-01T15:19:37.502Z,3.58
2019-05-01T15:22:26.288Z,3.45
2019-05-01T15:25:15.894Z,3.70
2019-05-01T15:28:05.880Z,3.80
2019-05-01T15:30:55.147Z,3.37
2019-05-01T15:33:48.524Z,3.10
2019-05-01T15:36:38.515Z,3.40
2019-05-01T15:39:39.766Z,3.17
2019-05-01T15:43:00.248Z,3.37
2019-05-01T15:45:49.942Z,3.50
2019-05-01T15:48:39.348Z,2.92
2019-05-01T15:51:28.876Z,3.67
2019-05-01T15:54:17.797Z,2.67
2019-05-01T15:57:08.014Z,3.10
2019-05-01T15:59:59.051Z,2.87
2019-05-01T16:02:48.426Z,3.33
2019-05-01T16:05:37.750Z,3.37
2019-05-01T16:08:26.517Z,3.30
2019-05-01T16:11:44.396Z,3.55
2019-05-01T16:14:33.846Z,3.65
2019-05-01T16:17:25.705Z,3.22
2019-05-01T16:20:16.865Z,4.62
2019-05-01T16:23:06.189Z,3.65
2019-05-01T16:25:55.850Z,3.92
2019-05-01T16:28:46.561Z,3.98
2019-05-01T16:31:36.236Z,4.30
2019-05-01T16:34:26.123Z,4.10
2019-05-01T16:37:15.763Z,4.28
2019-05-01T16:40:23.807Z,4.65
2019-05-01T16:43:13.952Z,5.17
2019-05-01T16:46:03.649Z,4.95
2019-05-01T16:48:54.658Z,3.90
2019-05-01T16:51:44.425Z,4.33
2019-05-01T16:54:33.995Z,4.70
2019-05-01T16:57:25.725Z,4.22
2019-05-01T17:00:17.244Z,4.55
2019-05-01T17:03:14.390Z,3.55
2019-05-01T17:06:14.853Z,3.85
2019-05-01T17:09:23.656Z,4.10
2019-05-01T17:12:13.829Z,3.75
2019-05-01T17:15:03.516Z,3.65
2019-05-01T17:17:52.853Z,3.60
2019-05-01T17:20:41.633Z,3.62
2019-05-01T17:23:31.162Z,3.37
2019-05-01T17:26:22.686Z,3.80
2019-05-01T17:29:12.107Z,3.47
2019-05-01T17:32:05.083Z,3.50
2019-05-01T17:34:53.059Z,3.40
2019-05-01T17:37:42.676Z,3.95
2019-05-01T17:40:32.628Z,3.35
2019-05-01T17:43:21.871Z,3.22
2019-05-01T17:46:12.069Z,3.25
2019-05-01T17:49:04.181Z,4.03
2019-05-01T17:51:52.445Z,3.35
2019-05-01T17:54:42.077Z,3.65
2019-05-01T17:57:33.627Z,3.27
2019-05-01T18:00:34.564Z,3.50
2019-05-01T18:03:38.373Z,3.05
2019-05-01T18:06:32.900Z,3.65
2019-05-01T18:09:22.142Z,4.30
2019-05-01T18:12:11.814Z,3.05
2019-05-01T18:15:01.347Z,3.20
2019-05-01T18:17:51.179Z,3.20
2019-05-01T18:20:41.046Z,2.95
2019-05-01T18:23:49.529Z,3.20
2019-05-01T18:26:56.382Z,3.45
2019-05-01T18:29:48.362Z,3.83
2019-05-01T18:32:46.903Z,3.33
2019-05-01T18:35:35.098Z,3.70
2019-05-01T18:38:30.157Z,3.92
2019-05-01T18:41:38.230Z,3.95
2019-05-01T18:44:27.310Z,4.30
2019-05-01T18:47:16.631Z,3.80
2019-05-01T18:50:06.102Z,3.33
2019-05-01T18:52:56.623Z,3.50
2019-05-01T18:55:45.457Z,4.22
2019-05-01T18:58:34.857Z,4.00
2019-05-01T19:01:24.129Z,4.17
2019-05-01T19:04:13.272Z,4.42
2019-05-01T19:07:02.175Z,4.10
2019-05-01T19:09:51.369Z,4.40
2019-05-01T19:12:41.322Z,4.67
2019-05-01T19:15:30.892Z,4.30
2019-05-01T19:18:20.028Z,4.50
2019-05-01T19:21:10.314Z,4.75
2019-05-01T19:24:01.115Z,4.53
2019-05-01T19:26:51.831Z,4.33
2019-05-01T19:29:41.197Z,5.17
2019-05-01T19:32:31.170Z,4.72
2019-05-01T19:35:23.688Z,5.10
2019-05-01T19:38:10.785Z,4.40
2019-05-01T19:41:03.476Z,4.75
2019-05-01T19:43:51.055Z,4.53
2019-05-01T19:46:40.453Z,5.65
2019-05-01T19:49:30.844Z,5.78
2019-05-01T19:52:20.697Z,5.12
2019-05-01T19:55:10.025Z,5.45
2019-05-01T19:57:59.837Z,5.12
2019-05-01T20:01:04.041Z,5.40
2019-05-01T20:03:51.190Z,5.70
2019-05-01T20:06:41.153Z,5.20
2019-05-01T20:09:30.585Z,4.83
2019-05-01T20:12:20.919Z,6.35
2019-05-01T20:15:10.566Z,6.08
2019-05-01T20:18:00.048Z,5.33
2019-05-01T20:20:48.836Z,5.85
2019-05-01T20:23:38.048Z,5.80
2019-05-01T20:26:32.254Z,6.33
2019-05-01T20:29:17.952Z,5.55
2019-05-01T20:32:07.266Z,6.37
2019-05-01T20:34:59.247Z,6.67
2019-05-01T20:37:47.300Z,6.42
2019-05-01T20:40:41.183Z,7.00
2019-05-01T20:43:30.284Z,6.47
2019-05-01T20:46:21.516Z,6.33
2019-05-01T20:49:10.853Z,6.62
2019-05-01T20:52:00.823Z,7.22
2019-05-01T20:54:50.122Z,7.60
2019-05-01T20:57:40.950Z,7.17
2019-05-01T21:00:30.278Z,7.00
2019-05-01T21:03:19.557Z,6.83
2019-05-01T21:06:21.084Z,7.28
2019-05-01T21:09:16.306Z,6.50
2019-05-01T21:12:05.868Z,7.45
2019-05-01T21:14:55.208Z,7.75
2019-05-01T21:17:49.429Z,7.58
2019-05-01T21:20:35.657Z,7.78
2019-05-01T21:23:26.245Z,7.00
2019-05-01T21:26:15.153Z,6.85
2019-05-01T21:29:04.413Z,7.92
2019-05-01T21:31:54.307Z,7.67
2019-05-01T21:34:43.904Z,8.43
2019-05-01T21:37:33.540Z,7.87
2019-05-01T21:40:23.262Z,8.35
2019-05-01T21:43:13.581Z,7.67
2019-05-01T21:46:03.970Z,7.58
2019-05-01T21:48:53.662Z,8.28
2019-05-01T21:51:46.059Z,8.55
2019-05-01T21:54:33.668Z,8.25
2019-05-01T21:57:24.515Z,8.65
2019-05-01T22:00:15.711Z,8.45
2019-05-01T22:03:06.439Z,8.38
2019-05-01T22:05:56.041Z,7.72
2019-05-01T22:08:45.598Z,8.28
2019-05-01T22:11:37.823Z,8.60
2019-05-01T22:14:41.449Z,9.10
2019-05-01T22:17:49.191Z,8.73
2019-05-01T22:20:43.116Z,8.93
2019-05-01T22:23:35.366Z,9.50
2019-05-01T22:26:25.726Z,9.93
2019-05-01T22:29:17.095Z,9.13
2019-05-01T22:32:19.225Z,9.90
2019-05-01T22:35:21.894Z,9.68
2019-05-01T22:38:11.663Z,9.40
2019-05-01T22:41:11.000Z,9.68
2019-05-01T22:44:00.084Z,10.18
2019-05-01T22:46:49.025Z,9.88
2019-05-01T22:49:39.526Z,10.13
2019-05-01T22:52:29.126Z,11.40
2019-05-01T22:55:20.423Z,10.15
2019-05-01T22:58:09.687Z,9.50
2019-05-01T23:01:00.777Z,11.05
2019-05-01T23:03:53.171Z,11.53
2019-05-01T23:06:43.182Z,11.78
2019-05-01T23:09:33.057Z,10.70
2019-05-01T23:12:22.209Z,9.58
2019-05-01T23:15:19.249Z,10.60
2019-05-01T23:18:10.556Z,10.88
2019-05-01T23:20:59.476Z,10.50
2019-05-01T23:23:48.623Z,10.35
2019-05-01T23:26:38.260Z,11.03
2019-05-01T23:29:28.365Z,10.28
2019-05-01T23:32:18.393Z,11.12
2019-05-01T23:35:07.471Z,10.98
2019-05-01T23:37:57.134Z,10.90
2019-05-01T23:40:51.103Z,11.60
2019-05-01T23:43:37.116Z,10.80
2019-05-01T23:46:26.554Z,10.95
2019-05-01T23:49:15.480Z,11.15
2019-05-01T23:52:05.167Z,11.12
2019-05-01T23:54:55.069Z,11.15
2019-05-01T23:57:44.589Z,10.78
